Aniak, AK (99557)

4:10 PM AKDT on September 17, 2014 (GMT -0800)
Aniak | Change Station
CLOSE
Current Station
Airport
Location: Aniak,
Elevation: 85 ft
Nearby Weather Stations

Elev 85 ft 61.58 °N, 159.54 °W | Updated 14 minutes ago

Overcast
Overcast
52 °F
Feels Like 52 °F
N
0
Wind Variable Wind from North

Today
High -- | Low -- °F
--% Chance of Precip.
Yesterday
High -- | Low -- °F
Precip. -- in
8:09 AM 8:53 PM
Waning Crescent, 32% visible
Pressure 29.21 in
Visibility 10.0 miles
Clouds Mostly Cloudy 5000 ft
Overcast 6000 ft
Dew Point 46 °F
Humidity 82%
Rainfall 0.00 in
Snow Depth 4 in , 2 in , 0 in
UV 1 out of 12
Pollen Not available.
Air Quality Not available.
Flu Activity Not available.
METAR PANI 172356Z AUTO 00000KT 10SM BKN050 OVC060 11/08 A2921 RMK AO1 10120 20090 401300090 57014

More Conditions Fewer Conditions

Pressure 29.21 in
Visibility 10.0 miles
Clouds Mostly Cloudy 5000 ft
Overcast 6000 ft
Dew Point 46 °F
Humidity 82%
Rainfall 0.00 in
Snow Depth 4 in , 2 in , 0 in
UV 1 out of 12
Pollen Not available.
Air Quality Not available.
Flu Activity Not available.
METAR PANI 172356Z AUTO 00000KT 10SM BKN050 OVC060 11/08 A2921 RMK AO1 10120 20090 401300090 57014

More Conditions Fewer Conditions

10-Day Weather Forecast

Almanac

Astronomy

Sep. 17, 2014 Rise Set
Actual Time 8:09 AM AKDT 8:53 PM AKDT
Civil Twilight 7:25 AM AKDT 9:37 PM AKDT
Nautical Twilight 6:30 AM AKDT 10:31 PM AKDT
Astronomical Twilight 5:28 AM AKDT 11:32 PM AKDT
Moon 1:04 AM AKDT (9/17) 6:21 PM AKDT (9/17)
Length of Visible Light 14h 11m
Length of Day
12h 43m
Tomorrow will be 5m 44s shorter.
Waning Crescent, 32% of the Moon is Illuminated
Today
Waning Crescent
Sep 24
New
Oct 1
First Quarter
Oct 8
Full
Oct 15
Last Quarter

Today's Extremes

State Highs State Lows

Community

WunderPhotos

Upload Photos

1,754,205 photos uploaded!

Nearby

Snow Depth

Station Depth Elevation
Rocky Point 4 in 500 ft
MF Bradley River 2 in 2300 ft
Upper Tsaina River 0 in 1750 ft
Turnagain Pass 2 in 1880 ft
Summit Creek 0 in 1400 ft

Earthquake Activity

City Distance Mag. Time & Date
No recent earthquake activity has been reported nearby.
Minimum magnitude displayed is 2.5.

Coastal Water Temperatures

Place Temperature
No Stations Reporting

Nearby Weather Stations